createdAt,value
2022-09-25T00:00:39.040Z,97.97
2022-09-25T00:02:40.321Z,97.99
2022-09-25T00:04:41.700Z,97.99
2022-09-25T00:06:43.443Z,98.01
2022-09-25T00:08:44.509Z,98.01
2022-09-25T00:10:45.813Z,98.05
2022-09-25T00:14:48.970Z,98.05
2022-09-25T00:16:50.040Z,98.07
2022-09-25T00:18:51.729Z,98.16
2022-09-25T00:20:53.512Z,98.18
2022-09-25T00:24:56.749Z,98.16
2022-09-25T00:26:58.485Z,98.21
2022-09-25T00:29:00.085Z,98.2
2022-09-25T00:31:01.313Z,98.24
2022-09-25T00:33:02.474Z,98.27
2022-09-25T00:35:03.841Z,98.27
2022-09-25T00:37:05.620Z,98.3
2022-09-25T00:39:06.808Z,98.31
2022-09-25T00:41:08.164Z,98.29
2022-09-25T00:43:09.631Z,98.22
2022-09-25T00:45:10.759Z,98.14
2022-09-25T00:47:11.829Z,98.12
2022-09-25T00:49:13.216Z,98.15
2022-09-25T00:51:14.671Z,98.24
2022-09-25T00:53:16.179Z,98.3
2022-09-25T00:55:17.354Z,98.34
2022-09-25T00:57:18.612Z,98.37
2022-09-25T00:59:19.756Z,98.35
2022-09-25T01:03:23.332Z,98.31
2022-09-25T01:05:24.558Z,98.29
2022-09-25T01:07:26.239Z,98.29
2022-09-25T01:09:27.822Z,98.27
2022-09-25T01:11:29.458Z,98.33
2022-09-25T01:13:30.959Z,98.33
2022-09-25T01:15:32.310Z,98.31
2022-09-25T01:17:33.745Z,98.25
2022-09-25T01:19:35.516Z,98.33
2022-09-25T01:21:37.052Z,98.35
2022-09-25T01:23:38.691Z,98.35
2022-09-25T01:25:39.942Z,98.38
2022-09-25T01:27:41.338Z,98.36
2022-09-25T01:29:42.381Z,98.36
2022-09-25T01:31:43.543Z,98.34
2022-09-25T01:33:45.018Z,98.35
2022-09-25T01:35:46.516Z,98.39
2022-09-25T01:37:48.395Z,98.41
2022-09-25T01:39:50.132Z,98.43
2022-09-25T01:41:51.057Z,98.43
2022-09-25T01:43:52.290Z,98.43
2022-09-25T01:45:53.406Z,98.43
2022-09-25T01:47:54.864Z,98.42
2022-09-25T01:49:56.531Z,98.42
2022-09-25T01:51:58.052Z,98.36
2022-09-25T01:53:59.173Z,98.37
2022-09-25T01:56:00.640Z,98.41
2022-09-25T01:58:02.289Z,98.43
2022-09-25T02:00:04.110Z,98.44
2022-09-25T02:02:05.415Z,98.51
2022-09-25T02:04:06.775Z,98.53
2022-09-25T02:06:08.690Z,98.52
2022-09-25T02:08:09.641Z,98.53
2022-09-25T02:10:11.010Z,98.58
2022-09-25T02:12:12.463Z,98.58
2022-09-25T02:14:13.525Z,98.57
2022-09-25T02:16:15.207Z,98.55
2022-09-25T02:18:16.611Z,98.57
2022-09-25T02:22:19.523Z,98.64
2022-09-25T02:24:21.196Z,98.69
2022-09-25T02:26:22.752Z,98.65
2022-09-25T02:28:24.611Z,98.66
2022-09-25T02:30:26.113Z,98.65
2022-09-25T02:32:27.434Z,98.65
2022-09-25T02:34:29.244Z,98.67
2022-09-25T02:36:30.729Z,98.66
2022-09-25T02:38:31.960Z,98.63
2022-09-25T02:40:33.069Z,98.62
2022-09-25T02:42:34.180Z,98.66
2022-09-25T02:44:35.419Z,98.65
2022-09-25T02:46:37.043Z,98.67
2022-09-25T02:48:38.734Z,98.71
2022-09-25T02:50:40.534Z,98.71
2022-09-25T02:52:41.842Z,98.72
2022-09-25T02:54:43.749Z,98.77
2022-09-25T02:56:44.781Z,98.75
2022-09-25T02:58:46.199Z,98.75
2022-09-25T03:00:47.401Z,98.78
2022-09-25T03:02:52.425Z,98.76
2022-09-25T03:04:50.337Z,98.74
2022-09-25T03:06:52.160Z,98.76
2022-09-25T03:08:53.869Z,98.73
2022-09-25T03:10:54.968Z,98.73
2022-09-25T03:12:56.328Z,98.73
2022-09-25T03:14:58.105Z,98.72
2022-09-25T03:16:59.585Z,98.76
2022-09-25T03:21:03.021Z,98.76
2022-09-25T03:23:04.842Z,98.79
2022-09-25T03:25:06.144Z,98.77
2022-09-25T03:27:07.332Z,98.79
2022-09-25T03:29:08.443Z,98.81
2022-09-25T03:31:10.257Z,98.83
2022-09-25T03:33:11.613Z,98.71
2022-09-25T03:35:13.184Z,98.71
2022-09-25T03:37:14.303Z,98.77
2022-09-25T03:39:15.963Z,98.79
2022-09-25T03:41:17.612Z,98.78
2022-09-25T03:43:18.702Z,98.78
2022-09-25T03:45:20.509Z,98.82
2022-09-25T03:47:21.738Z,98.82
2022-09-25T03:49:22.747Z,98.83
2022-09-25T03:51:24.260Z,98.83
2022-09-25T03:53:25.244Z,98.84
2022-09-25T03:55:26.771Z,98.85
2022-09-25T03:57:27.963Z,98.84
2022-09-25T03:59:29.667Z,98.87
2022-09-25T04:03:32.424Z,98.86
2022-09-25T04:05:33.377Z,98.88
2022-09-25T04:07:34.581Z,98.88
2022-09-25T04:09:35.649Z,98.88
2022-09-25T04:11:36.663Z,98.88
2022-09-25T04:13:38.431Z,98.87
2022-09-25T04:15:39.760Z,98.84
2022-09-25T04:17:41.042Z,98.84
2022-09-25T04:19:42.792Z,98.86
2022-09-25T04:21:44.311Z,98.85
2022-09-25T04:23:45.647Z,98.86
2022-09-25T04:25:46.863Z,98.88
2022-09-25T04:27:48.007Z,98.86
2022-09-25T04:29:49.271Z,98.86
2022-09-25T04:31:50.905Z,98.86
2022-09-25T04:33:52.226Z,98.85
2022-09-25T04:35:53.993Z,98.86
2022-09-25T04:37:55.457Z,98.85
2022-09-25T04:39:56.857Z,98.88
2022-09-25T04:41:58.648Z,98.9
2022-09-25T04:46:01.262Z,98.94
2022-09-25T04:48:02.610Z,98.93
2022-09-25T04:50:04.004Z,98.94
2022-09-25T04:52:05.151Z,98.9
2022-09-25T04:54:06.490Z,98.92
2022-09-25T04:56:10.985Z,98.91
2022-09-25T04:58:09.661Z,98.91
2022-09-25T05:02:11.607Z,98.88
2022-09-25T05:04:12.843Z,98.91
2022-09-25T05:06:13.824Z,98.88
2022-09-25T05:08:15.221Z,98.89
2022-09-25T05:10:17.002Z,98.89
2022-09-25T05:12:18.239Z,98.89
2022-09-25T05:14:19.586Z,98.89
2022-09-25T05:16:21.003Z,98.89
2022-09-25T05:18:21.847Z,98.88
2022-09-25T05:20:23.138Z,98.87
2022-09-25T05:22:24.189Z,98.86
2022-09-25T05:24:25.907Z,98.87
2022-09-25T05:26:27.077Z,98.87
2022-09-25T05:28:28.372Z,98.88
2022-09-25T05:30:29.439Z,98.86
2022-09-25T05:32:30.487Z,98.85
2022-09-25T05:34:31.955Z,98.87
2022-09-25T05:36:33.033Z,98.87
2022-09-25T05:38:34.077Z,98.89
2022-09-25T05:40:35.491Z,98.87
2022-09-25T05:42:36.901Z,98.87
2022-09-25T05:45:22.599Z,98.87
2022-09-25T05:47:23.782Z,98.9
2022-09-25T05:49:24.794Z,98.87
2022-09-25T05:51:26.256Z,98.86
2022-09-25T05:53:27.363Z,98.86
2022-09-25T05:55:29.121Z,98.83
2022-09-25T05:57:30.237Z,98.81
2022-09-25T05:59:31.945Z,98.8
2022-09-25T06:01:33.668Z,98.75
2022-09-25T06:03:34.552Z,98.72
2022-09-25T06:05:36.029Z,98.71
2022-09-25T06:07:37.731Z,98.68
2022-09-25T06:09:39.013Z,98.65
2022-09-25T06:11:40.225Z,98.68
2022-09-25T06:13:41.744Z,98.63
2022-09-25T06:15:43.348Z,98.59
2022-09-25T06:17:45.191Z,98.57
2022-09-25T06:21:48.351Z,98.38
2022-09-25T06:23:50.229Z,98.19
2022-09-25T06:25:51.634Z,98.05
2022-09-25T06:27:52.734Z,97.87
2022-09-25T06:29:54.256Z,97.7
2022-09-25T06:31:55.703Z,97.44
2022-09-25T06:33:56.953Z,97.23
2022-09-25T06:35:58.779Z,97.19
2022-09-25T06:37:59.927Z,97.17
2022-09-25T06:40:01.022Z,97.07
2022-09-25T06:42:02.452Z,97.15
2022-09-25T06:44:03.953Z,97.15
2022-09-25T06:46:05.647Z,97.11
2022-09-25T06:48:06.539Z,97.2
2022-09-25T06:50:07.508Z,97.25
2022-09-25T06:52:09.368Z,97.33
2022-09-25T06:54:10.967Z,97.38
2022-09-25T06:56:12.669Z,97.35
2022-09-25T06:58:14.387Z,97.44
2022-09-25T07:00:15.531Z,97.54
2022-09-25T07:02:17.076Z,97.57
2022-09-25T07:04:18.425Z,97.59
2022-09-25T07:06:19.426Z,97.63
2022-09-25T07:10:22.308Z,97.68
2022-09-25T07:12:23.874Z,97.67
2022-09-25T07:14:24.833Z,97.63
2022-09-25T07:16:26.022Z,97.66
2022-09-25T07:18:27.394Z,97.7
2022-09-25T07:20:28.785Z,97.71
2022-09-25T07:22:29.951Z,97.7
2022-09-25T07:24:31.340Z,97.71
2022-09-25T07:26:32.534Z,97.7
2022-09-25T07:28:34.311Z,97.7
2022-09-25T07:30:35.884Z,97.74
2022-09-25T07:32:37.779Z,97.74
2022-09-25T07:34:38.824Z,97.72
2022-09-25T07:36:39.861Z,97.72
2022-09-25T07:38:41.619Z,97.72
2022-09-25T07:40:43.397Z,97.74
2022-09-25T07:42:44.829Z,97.68
2022-09-25T07:44:48.592Z,97.72
2022-09-25T07:46:48.051Z,97.74
2022-09-25T07:48:49.408Z,97.76
2022-09-25T07:50:50.333Z,97.77
2022-09-25T07:52:52.035Z,97.78
2022-09-25T07:54:53.841Z,97.78
2022-09-25T07:56:55.204Z,97.84
2022-09-25T07:58:56.333Z,97.83
2022-09-25T08:02:59.976Z,97.83
2022-09-25T08:05:01.786Z,97.85
2022-09-25T08:07:03.570Z,97.92
2022-09-25T08:09:08.192Z,97.95
2022-09-25T08:11:06.049Z,97.93
2022-09-25T08:13:07.237Z,97.96
2022-09-25T08:15:09.040Z,97.98
2022-09-25T08:17:10.871Z,97.95
2022-09-25T08:19:12.358Z,97.97
2022-09-25T08:21:13.532Z,98.02
2022-09-25T08:23:14.641Z,98.02
2022-09-25T08:25:16.135Z,98.03
2022-09-25T08:27:17.121Z,98.02
2022-09-25T08:29:18.509Z,98.01
2022-09-25T08:31:19.703Z,98.08
2022-09-25T08:35:22.013Z,98.1
2022-09-25T08:37:23.387Z,98.03
2022-09-25T08:39:24.608Z,98.06
2022-09-25T08:41:26.011Z,98.05
2022-09-25T08:43:27.345Z,98.1
2022-09-25T08:45:28.722Z,97.99
2022-09-25T08:47:30.460Z,97.77
2022-09-25T08:51:32.692Z,97.83
2022-09-25T08:53:33.693Z,97.85
2022-09-25T08:55:35.272Z,97.88
2022-09-25T08:57:37.076Z,97.92
2022-09-25T08:59:38.341Z,97.76
2022-09-25T09:01:39.607Z,97.71
2022-09-25T09:03:41.423Z,97.67
2022-09-25T09:05:42.974Z,97.57
2022-09-25T09:07:44.355Z,97.58
2022-09-25T09:09:45.617Z,97.57
2022-09-25T09:11:47.316Z,97.54
2022-09-25T09:13:48.238Z,97.51
2022-09-25T09:15:49.842Z,97.53
2022-09-25T09:17:51.007Z,97.53
2022-09-25T09:19:52.584Z,97.51
2022-09-25T09:21:54.239Z,97.5
2022-09-25T09:23:55.890Z,97.49
2022-09-25T09:25:57.393Z,97.44
2022-09-25T09:27:59.128Z,97.45
2022-09-25T09:30:05.398Z,97.48
2022-09-25T09:34:03.332Z,97.36
2022-09-25T09:36:04.323Z,97.4
2022-09-25T09:38:05.846Z,97.35
2022-09-25T09:40:07.540Z,97.5
2022-09-25T09:44:10.991Z,97.69
2022-09-25T09:46:12.266Z,97.07
2022-09-25T09:48:13.868Z,96.36
2022-09-25T09:50:15.386Z,94.85
2022-09-25T09:52:16.842Z,94.3
2022-09-25T09:54:17.994Z,94.43
2022-09-25T09:56:18.934Z,93.46
2022-09-25T09:58:20.469Z,92.39
2022-09-25T10:00:22.030Z,91.42
2022-09-25T10:02:23.842Z,91.63
2022-09-25T10:04:24.612Z,90.69
2022-09-25T10:06:25.806Z,90.04
2022-09-25T10:08:26.803Z,90.64
2022-09-25T10:10:27.954Z,90.61
2022-09-25T10:12:29.412Z,88.2
2022-09-25T10:14:30.714Z,88.44
2022-09-25T10:16:31.688Z,89.36
2022-09-25T10:18:33.045Z,89.59
2022-09-25T10:20:34.404Z,87.97
2022-09-25T10:22:35.656Z,88.05
2022-09-25T10:26:38.435Z,87.34
2022-09-25T10:28:39.393Z,88.16
2022-09-25T10:30:40.381Z,89.96
2022-09-25T10:32:42.051Z,90.89
2022-09-25T10:34:43.150Z,90.84
2022-09-25T10:36:44.657Z,91.57
2022-09-25T10:38:46.018Z,91.57
2022-09-25T10:40:47.124Z,91.91
2022-09-25T10:42:48.311Z,92.29
2022-09-25T10:44:51.878Z,92.55
2022-09-25T10:46:50.614Z,92.56
2022-09-25T10:48:51.669Z,92.3
2022-09-25T10:50:52.595Z,91.37
2022-09-25T10:52:53.827Z,91.99
2022-09-25T10:54:55.511Z,91.7
2022-09-25T10:56:57.263Z,91.76
2022-09-25T10:58:58.395Z,92.02
2022-09-25T11:00:59.833Z,92
2022-09-25T11:03:01.219Z,92.25
2022-09-25T11:05:02.839Z,92.59
2022-09-25T11:09:05.067Z,91.7
2022-09-25T11:11:06.558Z,93.06
2022-09-25T11:15:09.375Z,91.43
2022-09-25T11:17:11.044Z,90.47
2022-09-25T11:19:12.344Z,89.9
2022-09-25T11:21:13.258Z,89.11
2022-09-25T11:23:14.273Z,89.88
2022-09-25T11:25:15.329Z,90.76
2022-09-25T11:27:16.778Z,90.54
2022-09-25T11:29:18.164Z,90.14
2022-09-25T11:31:19.501Z,89.37
2022-09-25T11:33:20.909Z,88.68
2022-09-25T11:35:21.834Z,87.53
2022-09-25T11:37:23.569Z,87.29
2022-09-25T11:39:24.994Z,85.74
2022-09-25T11:41:26.317Z,86.12
2022-09-25T11:43:27.165Z,85.77
2022-09-25T11:45:28.346Z,86.36
2022-09-25T11:47:29.337Z,85.8
2022-09-25T11:49:31.062Z,86.2
2022-09-25T11:51:32.260Z,86.4
2022-09-25T11:53:33.363Z,87.55
2022-09-25T11:55:35.209Z,87.04
2022-09-25T11:57:36.480Z,86.96
2022-09-25T11:59:37.775Z,86.5
2022-09-25T12:01:38.927Z,86.49
2022-09-25T12:03:40.303Z,86.98
2022-09-25T12:07:43.407Z,88.85
2022-09-25T12:09:45.114Z,90.05
2022-09-25T12:11:46.565Z,89.53
2022-09-25T12:13:47.856Z,90.31
2022-09-25T12:15:49.486Z,89.91
2022-09-25T12:17:50.896Z,91.18
2022-09-25T12:19:52.151Z,91.9
2022-09-25T12:21:53.403Z,92.57
2022-09-25T12:23:54.715Z,92.76
2022-09-25T12:25:56.366Z,93.33
2022-09-25T12:27:57.370Z,93.68
2022-09-25T12:28:41.152Z,93.8
2022-09-25T12:30:42.694Z,94.14
2022-09-25T12:32:43.751Z,94.57
2022-09-25T12:34:44.738Z,94.66
2022-09-25T12:36:46.585Z,94.66
2022-09-25T12:38:48.318Z,94.55
2022-09-25T12:40:50.161Z,94.63
2022-09-25T12:42:51.366Z,94.88
2022-09-25T12:44:53.165Z,95.06
2022-09-25T12:46:54.168Z,95.15
2022-09-25T12:48:55.879Z,95.09
2022-09-25T12:51:00.401Z,94.74
2022-09-25T12:52:59.295Z,94.79
2022-09-25T12:55:00.301Z,94.59
2022-09-25T12:57:01.941Z,94.49
2022-09-25T12:59:03.702Z,94.75
2022-09-25T13:01:04.942Z,94.97
2022-09-25T13:03:06.389Z,94.36
2022-09-25T13:05:07.304Z,94.58
2022-09-25T13:07:08.858Z,94.38
2022-09-25T13:09:10.451Z,93.91
2022-09-25T13:11:11.431Z,93.87
2022-09-25T13:13:13.358Z,93.97
2022-09-25T13:15:13.923Z,94.64
2022-09-25T13:17:15.074Z,94.38
2022-09-25T13:19:16.667Z,93.61
2022-09-25T13:21:18.405Z,93.27
2022-09-25T13:23:19.670Z,91.62
2022-09-25T13:25:20.615Z,91.44
2022-09-25T13:27:21.870Z,90.92
2022-09-25T13:29:23.499Z,90.18
2022-09-25T13:31:24.895Z,89.87
2022-09-25T13:33:25.841Z,89.24
2022-09-25T13:35:26.914Z,87.31
2022-09-25T13:37:28.522Z,87.67
2022-09-25T13:39:29.837Z,88.57
2022-09-25T13:43:36.190Z,85.44
2022-09-25T13:45:33.840Z,85.78
2022-09-25T13:47:35.184Z,86.29
2022-09-25T13:49:36.579Z,86.65
2022-09-25T13:51:37.763Z,86.93
2022-09-25T13:53:39.993Z,87.02
2022-09-25T13:55:41.471Z,87.8
2022-09-25T13:57:42.814Z,87.77
2022-09-25T13:59:44.416Z,88.6
2022-09-25T14:01:45.431Z,87.92
2022-09-25T14:03:46.310Z,86.32
2022-09-25T14:05:48.076Z,87.28
2022-09-25T14:07:49.555Z,87.91
2022-09-25T14:09:51.231Z,87.85
2022-09-25T14:11:52.171Z,88.33
2022-09-25T14:13:53.628Z,88.13
2022-09-25T14:15:54.466Z,87.07
2022-09-25T14:17:55.491Z,87.35
2022-09-25T14:21:58.233Z,88.49
2022-09-25T14:26:00.952Z,87.77
2022-09-25T14:28:02.221Z,86.19
2022-09-25T14:30:03.883Z,87.24
2022-09-25T14:32:05.224Z,88.73
2022-09-25T14:34:06.999Z,90.5
2022-09-25T14:36:08.228Z,91.21
2022-09-25T14:38:09.267Z,92.08
2022-09-25T14:40:10.797Z,92.28
2022-09-25T14:42:12.464Z,93.03
2022-09-25T14:44:14.381Z,93.42
2022-09-25T14:46:16.041Z,92.44
2022-09-25T14:48:16.960Z,92.51
2022-09-25T14:50:17.852Z,93.61
2022-09-25T14:52:19.509Z,93.98
2022-09-25T14:54:21.203Z,94.01
2022-09-25T14:56:22.758Z,93.72
2022-09-25T14:58:24.461Z,94.05
2022-09-25T15:00:25.753Z,94.35
2022-09-25T15:02:27.496Z,94.58
2022-09-25T15:04:28.949Z,94.22
2022-09-25T15:06:30.044Z,94.22
2022-09-25T15:08:31.243Z,94.38
2022-09-25T15:10:32.725Z,94.44
2022-09-25T15:14:36.133Z,92.97
2022-09-25T15:16:37.489Z,94.07
2022-09-25T15:18:39.186Z,93.27
2022-09-25T15:20:40.429Z,92.72
2022-09-25T15:24:43.980Z,92.56
2022-09-25T15:26:45.553Z,93.29
2022-09-25T15:28:47.181Z,93.72
2022-09-25T15:30:48.869Z,93.85
2022-09-25T15:32:49.983Z,94.07
2022-09-25T15:34:51.843Z,94.3
2022-09-25T15:36:53.664Z,94.21
2022-09-25T15:38:55.357Z,94.07
2022-09-25T15:40:56.358Z,94.17
2022-09-25T15:42:57.528Z,94.43
2022-09-25T15:44:59.009Z,94.57
2022-09-25T15:47:00.366Z,94.59
2022-09-25T15:49:01.999Z,94.65
2022-09-25T15:51:03.817Z,94.23
2022-09-25T15:53:05.287Z,94.58
2022-09-25T15:57:07.909Z,94.78
2022-09-25T15:59:09.783Z,94.88
2022-09-25T16:01:11.004Z,94.88
2022-09-25T16:03:12.167Z,95.06
2022-09-25T16:05:14.039Z,95.12
2022-09-25T16:07:15.395Z,95.31
2022-09-25T16:09:16.560Z,95.37
2022-09-25T16:11:18.227Z,94.93
2022-09-25T16:13:19.520Z,95.08
2022-09-25T16:15:21.231Z,95.24
2022-09-25T16:17:22.983Z,95.53
2022-09-25T16:19:24.687Z,95.68
2022-09-25T16:21:25.754Z,95.64
2022-09-25T16:23:26.843Z,95.41
2022-09-25T16:25:28.268Z,95.26
2022-09-25T16:27:29.276Z,95.4
2022-09-25T16:29:30.194Z,95.39
2022-09-25T16:31:31.687Z,95.18
2022-09-25T16:33:32.569Z,95.24
2022-09-25T16:35:51.160Z,95.12
2022-09-25T16:37:35.171Z,95.37
2022-09-25T16:39:36.597Z,95.38
2022-09-25T16:41:37.719Z,95.38
2022-09-25T16:43:39.172Z,95.35
2022-09-25T16:45:40.556Z,95.52
2022-09-25T16:49:42.810Z,95.78
2022-09-25T16:51:44.443Z,95.79
2022-09-25T16:53:46.327Z,95.86
2022-09-25T16:55:47.822Z,95.97
2022-09-25T16:57:49.718Z,96.11
2022-09-25T16:59:51.595Z,96.26
2022-09-25T17:01:53.466Z,96.32
2022-09-25T17:03:54.599Z,96.43
2022-09-25T17:05:56.096Z,96.59
2022-09-25T17:07:57.405Z,96.63
2022-09-25T17:09:58.850Z,96.73
2022-09-25T17:12:00.126Z,96.85
2022-09-25T17:14:01.169Z,96.89
2022-09-25T17:16:02.269Z,96.99
2022-09-25T17:18:03.499Z,96.93
2022-09-25T17:22:06.524Z,96.94
2022-09-25T17:24:08.106Z,96.98
2022-09-25T17:28:10.691Z,96.92
2022-09-25T17:30:11.737Z,96.92
2022-09-25T17:32:13.178Z,96.88
2022-09-25T17:34:14.725Z,96.95
2022-09-25T17:36:16.048Z,96.93
2022-09-25T17:38:17.261Z,96.95
2022-09-25T17:40:19.015Z,97.01
2022-09-25T17:42:20.682Z,96.98
2022-09-25T17:44:22.564Z,96.92
2022-09-25T17:46:24.254Z,96.98
2022-09-25T17:48:25.444Z,97
2022-09-25T17:50:27.248Z,97.06
2022-09-25T17:52:28.453Z,97.06
2022-09-25T17:54:30.167Z,97.11
2022-09-25T17:56:31.331Z,97.09
2022-09-25T18:00:33.977Z,97.19
2022-09-25T18:02:35.726Z,97.22
2022-09-25T18:04:37.540Z,97.18
2022-09-25T18:06:38.874Z,97.26
2022-09-25T18:08:40.354Z,97.28
2022-09-25T18:10:42.241Z,97.31
2022-09-25T18:14:44.957Z,97.44
2022-09-25T18:16:45.905Z,97.35
2022-09-25T18:20:48.160Z,97.2
2022-09-25T18:22:49.465Z,97.2
2022-09-25T18:24:51.174Z,97.14
2022-09-25T18:26:52.790Z,96.86
2022-09-25T18:30:55.206Z,96.76
2022-09-25T18:32:56.245Z,96.61
2022-09-25T18:34:58.102Z,96.56
2022-09-25T18:36:59.133Z,96.65
2022-09-25T18:39:00.383Z,96.64
2022-09-25T18:41:02.329Z,96.66
2022-09-25T18:43:03.512Z,96.55
2022-09-25T18:45:04.699Z,96.41
2022-09-25T18:47:05.858Z,96.39
2022-09-25T18:49:07.655Z,96.26
2022-09-25T18:51:09.445Z,96.36
2022-09-25T18:53:10.961Z,96.4
2022-09-25T18:55:12.581Z,96.42
2022-09-25T18:57:13.624Z,96.41
2022-09-25T18:59:14.830Z,96.44
2022-09-25T19:01:15.940Z,96.5
2022-09-25T19:03:17.021Z,96.63
2022-09-25T19:05:18.425Z,96.7
2022-09-25T19:07:19.621Z,96.71
2022-09-25T19:09:21.647Z,96.82
2022-09-25T19:13:24.103Z,96.91
2022-09-25T19:14:07.896Z,96.9
2022-09-25T19:16:09.559Z,97.02
2022-09-25T19:18:10.688Z,97.05
2022-09-25T19:20:12.337Z,97.01
2022-09-25T19:22:13.563Z,97.01
2022-09-25T19:24:15.283Z,97.04
2022-09-25T19:26:16.826Z,97.03
2022-09-25T19:28:18.706Z,96.95
2022-09-25T19:30:19.974Z,96.93
2022-09-25T19:32:21.661Z,96.84
2022-09-25T19:34:23.259Z,96.86
2022-09-25T19:36:24.965Z,96.81
2022-09-25T19:40:27.422Z,96.85
2022-09-25T19:42:29.187Z,96.87
2022-09-25T19:44:31.115Z,96.87
2022-09-25T19:46:32.120Z,96.88
2022-09-25T19:50:35.251Z,96.89
2022-09-25T19:52:36.275Z,96.86
2022-09-25T19:54:37.269Z,96.86
2022-09-25T19:56:38.193Z,96.85
2022-09-25T19:58:39.249Z,96.89
2022-09-25T20:00:40.788Z,96.86
2022-09-25T20:02:42.562Z,96.92
2022-09-25T20:04:43.662Z,96.97
2022-09-25T20:06:44.600Z,97.03
2022-09-25T20:08:45.905Z,97.09
2022-09-25T20:10:47.553Z,97.08
2022-09-25T20:12:48.587Z,97.11
2022-09-25T20:14:50.087Z,97.14
2022-09-25T20:16:51.331Z,97.14
2022-09-25T20:18:52.337Z,97.17
2022-09-25T20:20:53.504Z,97.16
2022-09-25T20:22:55.142Z,97.09
2022-09-25T20:24:56.681Z,97.15
2022-09-25T20:26:58.193Z,97.16
2022-09-25T20:28:59.573Z,97.08
2022-09-25T20:31:00.588Z,97.03
2022-09-25T20:33:02.430Z,96.95
2022-09-25T20:35:03.509Z,96.87
2022-09-25T20:39:06.221Z,96.79
2022-09-25T20:41:07.497Z,96.75
2022-09-25T20:43:08.574Z,96.75
2022-09-25T20:45:09.573Z,96.73
2022-09-25T20:49:12.845Z,96.71
2022-09-25T20:51:14.745Z,96.66
2022-09-25T20:53:15.670Z,96.63
2022-09-25T20:55:16.946Z,96.72
2022-09-25T20:57:18.852Z,96.79
2022-09-25T20:59:20.526Z,96.76
2022-09-25T21:01:22.456Z,96.78
2022-09-25T21:03:24.322Z,96.76
2022-09-25T21:05:25.334Z,96.81
2022-09-25T21:07:26.729Z,96.8
2022-09-25T21:09:28.127Z,96.86
2022-09-25T21:11:29.232Z,96.8
2022-09-25T21:13:30.685Z,96.84
2022-09-25T21:15:32.269Z,96.83
2022-09-25T21:17:33.196Z,96.85
2022-09-25T21:19:35.088Z,96.87
2022-09-25T21:21:36.365Z,96.91
2022-09-25T21:23:38.064Z,96.82
2022-09-25T21:25:39.384Z,96.77
2022-09-25T21:27:40.570Z,96.68
2022-09-25T21:31:48.381Z,96.7
2022-09-25T21:33:44.831Z,96.72
2022-09-25T21:35:45.715Z,96.71
2022-09-25T21:37:46.651Z,96.73
2022-09-25T21:39:47.910Z,96.73
2022-09-25T21:41:49.623Z,96.71
2022-09-25T21:43:51.060Z,96.73
2022-09-25T21:45:52.583Z,96.7
2022-09-25T21:47:53.635Z,96.71
2022-09-25T21:49:54.623Z,96.75
2022-09-25T21:51:56.207Z,96.76
2022-09-25T21:53:57.661Z,96.78
2022-09-25T21:55:58.987Z,96.81
2022-09-25T22:00:01.577Z,96.85
2022-09-25T22:02:03.420Z,96.87
2022-09-25T22:04:05.102Z,96.93
2022-09-25T22:06:06.445Z,96.91
2022-09-25T22:08:08.275Z,96.92
2022-09-25T22:10:09.571Z,96.94
2022-09-25T22:12:11.467Z,97.01
2022-09-25T22:14:15.937Z,97.05
2022-09-25T22:16:15.135Z,97.09
2022-09-25T22:18:16.130Z,97.12
2022-09-25T22:20:17.746Z,97.1
2022-09-25T22:22:19.574Z,97.13
2022-09-25T22:24:21.345Z,97.14
2022-09-25T22:26:22.939Z,97.14
2022-09-25T22:28:24.696Z,97.19
2022-09-25T22:30:25.980Z,97.2
2022-09-25T22:32:27.542Z,97.21
2022-09-25T22:34:28.620Z,97.24
2022-09-25T22:36:29.934Z,97.24
2022-09-25T22:38:30.891Z,97.23
2022-09-25T22:40:32.713Z,97.28
2022-09-25T22:42:34.412Z,97.31
2022-09-25T22:46:37.830Z,97.28
2022-09-25T22:48:39.157Z,97.29
2022-09-25T22:50:40.416Z,97.19
2022-09-25T22:52:42.317Z,97.05
2022-09-25T22:54:43.589Z,96.95
2022-09-25T22:56:45.123Z,96.88
2022-09-25T22:58:46.264Z,96.72
2022-09-25T23:00:47.349Z,96.53
2022-09-25T23:02:48.701Z,96.46
2022-09-25T23:04:50.237Z,96.34
2022-09-25T23:06:51.537Z,96.26
2022-09-25T23:08:53.025Z,96.22
2022-09-25T23:11:07.011Z,96.17
2022-09-25T23:12:56.393Z,96.16
2022-09-25T23:14:57.984Z,96.18
2022-09-25T23:16:59.922Z,96.35
2022-09-25T23:19:01.506Z,96.42
2022-09-25T23:21:02.594Z,96.46
2022-09-25T23:25:05.769Z,96.56
2022-09-25T23:27:06.795Z,96.63
2022-09-25T23:29:08.061Z,96.67
2022-09-25T23:31:09.189Z,96.66
2022-09-25T23:33:10.685Z,96.77
2022-09-25T23:35:12.530Z,96.7
2022-09-25T23:37:14.222Z,96.53
2022-09-25T23:39:15.689Z,96.46
2022-09-25T23:41:17.612Z,96.52
2022-09-25T23:43:18.704Z,96.51
2022-09-25T23:45:20.572Z,96.46
2022-09-25T23:47:21.906Z,96.31
2022-09-25T23:49:23.466Z,96.44
2022-09-25T23:51:25.307Z,96.69
2022-09-25T23:53:26.325Z,96.74
2022-09-25T23:55:27.481Z,96.79
2022-09-25T23:57:29.360Z,96.93
